Terminal Aerodrome Forecast
Issued by NWS

Current Version | Previous Version | Graphics & Text | Print | Product List | Glossary On
Versions: 1 2 3 4 5 6 7 8 9 10 11 12 13 14
592
FTUS41 KPBZ 261738
TAFHLG
TAF
KHLG 261738Z 2618/2718 25011G19KT P6SM SCT060
     FM262100 27005KT P6SM VCSH BKN060
     FM270000 24005KT P6SM SCT200
     FM271400 27007KT P6SM BKN040=

USA.gov is the U.S. government's official web portal to all federal, state and local government web resources and services.